createdAt,value
2018-02-23T00:00:05.780Z,76.30
2018-02-23T00:02:32.800Z,76.90
2018-02-23T00:04:59.791Z,76.90
2018-02-23T00:10:28.273Z,76.80
2018-02-23T00:12:55.261Z,76.40
2018-02-23T00:15:21.986Z,76.50
2018-02-23T00:17:48.244Z,75.80
2018-02-23T00:20:14.497Z,76.10
2018-02-23T00:22:42.306Z,76.30
2018-02-23T00:25:09.860Z,75.70
2018-02-23T00:27:36.844Z,75.60
2018-02-23T00:30:04.484Z,75.60
2018-02-23T00:32:32.046Z,75.60
2018-02-23T00:34:59.038Z,75.70
2018-02-23T00:37:25.289Z,75.70
2018-02-23T00:39:51.561Z,75.60
2018-02-23T00:42:18.556Z,76.10
2018-02-23T00:44:44.892Z,76.10
2018-02-23T00:47:11.469Z,76.10
2018-02-23T00:49:38.133Z,75.70
2018-02-23T00:52:04.484Z,74.90
2018-02-23T00:54:31.925Z,74.80
2018-02-23T00:56:58.620Z,74.70
2018-02-23T00:59:24.873Z,74.10
2018-02-23T01:01:51.769Z,74.00
2018-02-23T01:04:19.340Z,74.90
2018-02-23T01:06:46.332Z,74.90
2018-02-23T01:09:12.607Z,74.90
2018-02-23T01:11:39.154Z,74.70
2018-02-23T01:14:06.810Z,75.10
2018-02-23T01:16:33.065Z,75.10
2018-02-23T01:19:00.625Z,75.30
2018-02-23T01:21:27.614Z,75.30
2018-02-23T01:23:54.324Z,75.20
2018-02-23T01:26:21.788Z,74.60
2018-02-23T01:28:48.785Z,74.80
2018-02-23T01:31:15.577Z,74.80
2018-02-23T01:33:43.004Z,75.80
2018-02-23T01:36:09.277Z,75.80
2018-02-23T01:38:36.260Z,75.80
2018-02-23T01:41:03.164Z,75.70
2018-02-23T01:43:30.165Z,75.00
2018-02-23T01:45:56.409Z,75.00
2018-02-23T01:48:24.093Z,74.90
2018-02-23T01:50:57.432Z,75.00
2018-02-23T01:53:24.748Z,74.30
2018-02-23T01:55:51.433Z,74.30
2018-02-23T01:58:20.092Z,73.60
2018-02-23T02:00:46.364Z,73.60
2018-02-23T02:03:13.384Z,74.00
2018-02-23T02:05:39.644Z,74.00
2018-02-23T02:08:06.652Z,74.10
2018-02-23T02:10:32.993Z,74.10
2018-02-23T02:12:59.509Z,74.00
2018-02-23T02:15:26.525Z,74.10
2018-02-23T02:17:54.229Z,74.40
2018-02-23T02:20:20.932Z,74.40
2018-02-23T02:22:47.945Z,74.30
2018-02-23T02:25:14.613Z,74.30
2018-02-23T02:27:40.869Z,74.30
2018-02-23T02:30:08.333Z,74.10
2018-02-23T02:32:36.005Z,74.40
2018-02-23T02:35:03.045Z,74.50
2018-02-23T02:37:30.038Z,74.10
2018-02-23T02:39:56.297Z,74.10
2018-02-23T02:42:22.568Z,74.30
2018-02-23T02:44:50.338Z,74.60
2018-02-23T02:47:17.333Z,74.60
2018-02-23T02:49:43.584Z,74.60
2018-02-23T02:52:09.853Z,74.60
2018-02-23T02:54:37.266Z,75.30
2018-02-23T02:57:04.074Z,76.10
2018-02-23T02:59:31.058Z,75.30
2018-02-23T03:01:57.306Z,75.20
2018-02-23T03:04:23.890Z,75.40
2018-02-23T03:06:50.881Z,75.40
2018-02-23T03:09:17.276Z,75.40
2018-02-23T03:11:44.551Z,75.20
2018-02-23T03:14:12.929Z,74.60
2018-02-23T03:16:39.929Z,74.40
2018-02-23T03:19:06.530Z,74.40
2018-02-23T03:21:33.517Z,74.90
2018-02-23T03:24:00.210Z,74.90
2018-02-23T03:26:27.650Z,76.40
2018-02-23T03:28:53.905Z,75.80
2018-02-23T03:31:21.330Z,76.30
2018-02-23T03:33:48.125Z,76.30
2018-02-23T03:36:15.110Z,75.80
2018-02-23T03:38:41.354Z,75.90
2018-02-23T03:41:07.629Z,75.90
2018-02-23T03:43:35.409Z,76.50
2018-02-23T03:46:02.409Z,76.20
2018-02-23T03:48:28.692Z,76.20
2018-02-23T03:50:56.245Z,76.20
2018-02-23T03:53:23.395Z,76.10
2018-02-23T03:55:50.279Z,76.20
2018-02-23T03:58:16.541Z,76.40
2018-02-23T04:00:42.785Z,76.30
2018-02-23T04:03:09.380Z,76.40
2018-02-23T04:05:36.368Z,76.30
2018-02-23T04:08:02.714Z,76.20
2018-02-23T04:10:29.312Z,76.00
2018-02-23T04:12:56.753Z,76.30
2018-02-23T04:15:23.691Z,76.20
2018-02-23T04:17:49.941Z,76.60
2018-02-23T04:20:16.185Z,76.00
2018-02-23T04:22:43.202Z,76.10
2018-02-23T04:25:09.873Z,76.00
2018-02-23T04:27:36.863Z,75.50
2018-02-23T04:30:03.674Z,75.40
2018-02-23T04:32:30.317Z,75.30
2018-02-23T04:34:57.306Z,75.40
2018-02-23T04:37:23.556Z,75.40
2018-02-23T04:39:50.771Z,75.80
2018-02-23T04:42:18.189Z,76.50
2018-02-23T04:44:44.961Z,76.40
2018-02-23T04:47:11.213Z,76.60
2018-02-23T04:49:38.201Z,77.30
2018-02-23T04:52:04.973Z,77.30
2018-02-23T04:54:31.642Z,77.40
2018-02-23T04:56:59.299Z,77.60
2018-02-23T04:59:25.553Z,77.40
2018-02-23T05:01:52.558Z,77.90
2018-02-23T05:04:18.828Z,77.90
2018-02-23T05:06:46.322Z,78.00
2018-02-23T05:09:12.581Z,77.90
2018-02-23T05:11:39.226Z,77.80
2018-02-23T05:14:05.970Z,77.80
2018-02-23T05:16:32.280Z,78.60
2018-02-23T05:18:59.213Z,78.40
2018-02-23T05:21:26.788Z,77.80
2018-02-23T05:23:53.377Z,77.80
2018-02-23T05:26:20.192Z,77.40
2018-02-23T05:28:46.480Z,78.10
2018-02-23T05:31:13.244Z,78.50
2018-02-23T05:33:40.692Z,78.40
2018-02-23T05:36:07.036Z,78.40
2018-02-23T05:38:33.892Z,78.20
2018-02-23T05:41:00.892Z,78.40
2018-02-23T05:43:27.801Z,78.40
2018-02-23T05:45:54.788Z,78.00
2018-02-23T05:48:21.044Z,78.00
2018-02-23T05:50:47.689Z,77.70
2018-02-23T05:53:14.233Z,77.40
2018-02-23T05:55:41.081Z,76.90
2018-02-23T05:58:07.337Z,76.70
2018-02-23T06:00:34.322Z,76.80
2018-02-23T06:03:00.669Z,76.70
2018-02-23T06:05:26.971Z,76.00
2018-02-23T06:07:53.572Z,75.90
2018-02-23T06:10:20.469Z,75.50
2018-02-23T06:12:47.476Z,75.90
2018-02-23T06:15:14.319Z,75.90
2018-02-23T06:17:46.753Z,75.70
2018-02-23T06:20:13.900Z,75.50
2018-02-23T06:22:40.884Z,75.70
2018-02-23T06:25:07.571Z,74.90
2018-02-23T06:27:34.586Z,75.50
2018-02-23T06:30:01.293Z,74.60
2018-02-23T06:32:28.993Z,74.90
2018-02-23T06:34:55.236Z,74.90
2018-02-23T06:37:22.137Z,75.20
2018-02-23T06:39:49.129Z,74.80
2018-02-23T06:42:15.427Z,74.80
2018-02-23T06:44:42.434Z,74.60
2018-02-23T06:47:12.052Z,74.60
2018-02-23T06:49:38.366Z,75.20
2018-02-23T06:52:04.604Z,75.30
2018-02-23T06:54:31.375Z,75.30
2018-02-23T06:56:58.149Z,74.50
2018-02-23T06:59:25.145Z,74.50
2018-02-23T07:01:51.403Z,74.40
2018-02-23T07:04:17.684Z,74.10
2018-02-23T07:06:44.275Z,73.70
2018-02-23T07:09:11.449Z,74.10
2018-02-23T07:11:38.091Z,74.80
2018-02-23T07:14:04.857Z,74.20
2018-02-23T07:16:31.844Z,74.20
2018-02-23T07:18:58.449Z,74.20
2018-02-23T07:21:25.441Z,73.90
2018-02-23T07:23:52.448Z,73.90
2018-02-23T07:26:20.117Z,72.30
2018-02-23T07:28:47.095Z,73.20
2018-02-23T07:31:14.132Z,73.20
2018-02-23T07:33:41.568Z,72.60
2018-02-23T07:36:07.813Z,71.70
2018-02-23T07:38:34.802Z,72.00
2018-02-23T07:41:01.077Z,71.20
2018-02-23T07:43:27.333Z,71.50
2018-02-23T07:45:54.764Z,71.60
2018-02-23T07:48:21.039Z,71.60
2018-02-23T07:50:48.082Z,71.90
2018-02-23T07:53:14.941Z,71.90
2018-02-23T07:55:41.933Z,71.50
2018-02-23T07:58:08.188Z,71.40
2018-02-23T08:00:34.491Z,70.70
2018-02-23T08:03:01.193Z,71.60
2018-02-23T08:05:28.764Z,71.60
2018-02-23T08:07:55.791Z,71.30
2018-02-23T08:10:22.021Z,71.20
2018-02-23T08:12:48.900Z,70.10
2018-02-23T08:15:16.469Z,70.90
2018-02-23T08:17:43.466Z,69.80
2018-02-23T08:20:10.471Z,69.80
2018-02-23T08:22:37.936Z,69.70
2018-02-23T08:25:05.377Z,69.40
2018-02-23T08:27:31.628Z,69.30
2018-02-23T08:29:58.996Z,69.50
2018-02-23T08:32:26.436Z,69.10
2018-02-23T08:34:53.075Z,69.10
2018-02-23T08:37:19.316Z,68.90
2018-02-23T08:39:46.324Z,68.60
2018-02-23T08:42:13.233Z,68.40
2018-02-23T08:44:40.231Z,67.80
2018-02-23T08:47:06.476Z,67.70
2018-02-23T08:49:32.948Z,68.60
2018-02-23T08:52:01.167Z,67.80
2018-02-23T08:54:27.954Z,67.60
2018-02-23T08:56:54.811Z,66.70
2018-02-23T08:59:21.052Z,66.30
2018-02-23T09:01:48.583Z,66.10
2018-02-23T09:04:15.459Z,66.10
2018-02-23T09:06:41.722Z,66.90
2018-02-23T09:09:08.898Z,65.60
2018-02-23T09:11:36.129Z,65.60
2018-02-23T09:14:05.021Z,65.10
2018-02-23T09:16:32.019Z,64.80
2018-02-23T09:18:58.261Z,64.60
2018-02-23T09:21:24.522Z,64.60
2018-02-23T09:23:52.249Z,65.10
2018-02-23T09:26:19.140Z,65.10
2018-02-23T09:28:46.604Z,64.00
2018-02-23T09:31:14.053Z,64.00
2018-02-23T09:33:55.568Z,64.00
2018-02-23T09:36:22.545Z,62.00
2018-02-23T09:38:48.780Z,61.90
2018-02-23T09:41:15.473Z,61.50
2018-02-23T09:43:42.532Z,62.10
2018-02-23T09:46:08.761Z,61.90
2018-02-23T09:48:35.020Z,62.00
2018-02-23T09:51:02.005Z,60.20
2018-02-23T09:53:28.820Z,60.20
2018-02-23T09:55:55.837Z,59.70
2018-02-23T09:58:22.591Z,59.70
2018-02-23T10:00:49.452Z,61.30
2018-02-23T10:03:15.692Z,61.40
2018-02-23T10:05:42.676Z,61.60
2018-02-23T10:08:09.285Z,61.60
2018-02-23T10:10:35.532Z,60.70
2018-02-23T10:13:02.652Z,61.10
2018-02-23T10:15:29.287Z,61.10
2018-02-23T10:17:55.535Z,60.60
2018-02-23T10:20:21.887Z,60.90
2018-02-23T10:22:49.658Z,60.80
2018-02-23T10:25:17.008Z,60.10
2018-02-23T10:27:44.000Z,60.10
2018-02-23T10:30:11.037Z,60.00
2018-02-23T10:32:38.049Z,59.50
2018-02-23T10:35:06.484Z,60.20
2018-02-23T10:37:33.409Z,60.10
2018-02-23T10:40:00.418Z,59.40
2018-02-23T10:42:26.689Z,59.50
2018-02-23T10:44:53.201Z,58.40
2018-02-23T10:47:19.504Z,58.70
2018-02-23T10:49:46.629Z,59.60
2018-02-23T10:52:13.649Z,58.80
2018-02-23T10:54:40.546Z,58.90
2018-02-23T10:57:07.242Z,58.60
2018-02-23T10:59:34.324Z,59.30
2018-02-23T11:02:01.334Z,58.20
2018-02-23T11:04:27.665Z,58.00
2018-02-23T11:06:54.262Z,58.50
2018-02-23T11:09:21.246Z,58.40
2018-02-23T11:11:47.596Z,58.40
2018-02-23T11:14:14.601Z,58.10
2018-02-23T11:16:41.582Z,56.40
2018-02-23T11:19:07.828Z,56.40
2018-02-23T11:21:34.092Z,57.40
2018-02-23T11:24:01.833Z,56.50
2018-02-23T11:26:29.340Z,56.70
2018-02-23T11:28:56.214Z,58.60
2018-02-23T11:31:22.458Z,58.80
2018-02-23T11:33:49.071Z,58.30
2018-02-23T11:36:16.376Z,58.80
2018-02-23T11:38:42.626Z,58.60
2018-02-23T11:41:08.892Z,58.50
2018-02-23T11:43:35.748Z,59.00
2018-02-23T11:46:02.755Z,59.90
2018-02-23T11:48:29.505Z,59.40
2018-02-23T11:50:55.782Z,58.80
2018-02-23T11:53:23.863Z,59.30
2018-02-23T11:55:51.304Z,59.00
2018-02-23T11:58:17.559Z,59.00
2018-02-23T12:00:44.537Z,59.50
2018-02-23T12:03:11.065Z,59.50
2018-02-23T12:05:37.312Z,58.80
2018-02-23T12:08:03.639Z,58.60
2018-02-23T12:10:29.904Z,58.30
2018-02-23T12:12:56.154Z,58.20
2018-02-23T12:15:22.826Z,58.00
2018-02-23T12:17:49.071Z,58.60
2018-02-23T12:20:16.081Z,59.20
2018-02-23T12:22:43.580Z,59.20
2018-02-23T12:25:11.124Z,59.70
2018-02-23T12:27:37.384Z,59.70
2018-02-23T12:30:04.836Z,59.50
2018-02-23T12:32:32.273Z,59.50
2018-02-23T12:34:58.946Z,59.80
2018-02-23T12:37:25.942Z,60.10
2018-02-23T12:39:52.623Z,60.10
2018-02-23T12:42:19.620Z,60.00
2018-02-23T12:44:46.338Z,60.00
2018-02-23T12:47:13.321Z,60.50
2018-02-23T12:49:39.576Z,60.50
2018-02-23T12:52:06.373Z,61.30
2018-02-23T12:54:33.757Z,60.90
2018-02-23T12:57:00.000Z,60.90
2018-02-23T12:59:26.241Z,61.30
2018-02-23T13:01:52.523Z,61.70
2018-02-23T13:04:19.518Z,61.30
2018-02-23T13:06:45.894Z,61.90
2018-02-23T13:09:12.409Z,62.10
2018-02-23T13:11:38.656Z,62.20
2018-02-23T13:14:05.855Z,62.50
2018-02-23T13:16:32.904Z,63.00
2018-02-23T13:18:59.134Z,63.00
2018-02-23T13:21:25.382Z,63.20
2018-02-23T13:23:52.375Z,62.80
2018-02-23T13:26:19.290Z,62.80
2018-02-23T13:28:46.274Z,63.80
2018-02-23T13:31:13.313Z,63.80
2018-02-23T13:33:40.085Z,63.70
2018-02-23T13:36:06.396Z,64.20
2018-02-23T13:38:32.691Z,64.10
2018-02-23T13:41:05.386Z,64.40
2018-02-23T13:43:32.657Z,63.70
2018-02-23T13:45:58.927Z,63.60
2018-02-23T13:48:25.622Z,63.70
2018-02-23T13:50:53.716Z,63.50
2018-02-23T13:53:20.631Z,63.50
2018-02-23T13:55:46.884Z,63.80
2018-02-23T13:58:13.884Z,64.30
2018-02-23T14:00:40.228Z,64.30
2018-02-23T14:03:06.495Z,64.10
2018-02-23T14:05:32.858Z,63.90
2018-02-23T14:07:59.388Z,64.10
2018-02-23T14:10:26.377Z,64.80
2018-02-23T14:12:52.649Z,64.80
2018-02-23T14:15:20.097Z,64.30
2018-02-23T14:17:46.876Z,64.30
2018-02-23T14:20:13.844Z,64.40
2018-02-23T14:22:40.568Z,64.40
2018-02-23T14:25:08.033Z,64.60
2018-02-23T14:27:35.604Z,64.80
2018-02-23T14:30:03.252Z,65.70
2018-02-23T14:32:30.964Z,65.80
2018-02-23T14:34:57.789Z,65.80
2018-02-23T14:37:24.788Z,65.30
2018-02-23T14:39:51.498Z,65.30
2018-02-23T14:42:17.745Z,65.60
2018-02-23T14:44:44.044Z,65.80
2018-02-23T14:47:11.372Z,65.70
2018-02-23T14:49:50.951Z,65.70
2018-02-23T14:52:17.944Z,65.70
2018-02-23T14:54:44.652Z,65.70
2018-02-23T14:57:11.644Z,65.80
2018-02-23T14:59:37.881Z,65.80
2018-02-23T15:02:04.164Z,66.20
2018-02-23T15:04:31.148Z,65.90
2018-02-23T15:06:57.590Z,66.70
2018-02-23T15:09:24.196Z,66.00
2018-02-23T15:11:52.068Z,66.20
2018-02-23T15:14:19.741Z,66.50
2018-02-23T15:16:45.995Z,66.50
2018-02-23T15:19:12.236Z,66.60
2018-02-23T15:21:38.845Z,66.50
2018-02-23T15:24:06.203Z,66.40
2018-02-23T15:26:33.902Z,66.70
2018-02-23T15:29:01.844Z,66.70
2018-02-23T15:31:41.304Z,66.60
2018-02-23T15:34:08.018Z,66.60
2018-02-23T15:36:35.028Z,67.20
2018-02-23T15:39:01.827Z,66.70
2018-02-23T15:41:29.185Z,66.60
2018-02-23T15:43:56.712Z,66.90
2018-02-23T15:46:23.540Z,66.80
2018-02-23T15:49:04.787Z,67.50
2018-02-23T15:51:33.923Z,67.90
2018-02-23T15:54:01.026Z,68.00
2018-02-23T15:56:28.639Z,69.10
2018-02-23T15:58:55.442Z,69.00
2018-02-23T16:01:22.476Z,68.60
2018-02-23T16:03:49.508Z,69.10
2018-02-23T16:06:16.092Z,69.00
2018-02-23T16:08:43.617Z,68.80
2018-02-23T16:11:09.884Z,68.80
2018-02-23T16:13:37.561Z,68.90
2018-02-23T16:16:04.573Z,68.60
2018-02-23T16:18:31.213Z,68.60
2018-02-23T16:20:57.457Z,68.70
2018-02-23T16:23:23.983Z,68.90
2018-02-23T16:25:50.655Z,69.10
2018-02-23T16:28:17.645Z,68.80
2018-02-23T16:30:44.272Z,68.60
2018-02-23T16:33:11.297Z,68.80
2018-02-23T16:35:38.885Z,69.00
2018-02-23T16:38:05.906Z,69.10
2018-02-23T16:40:32.165Z,69.00
2018-02-23T16:42:59.603Z,68.90
2018-02-23T16:45:26.572Z,68.90
2018-02-23T16:47:53.572Z,69.50
2018-02-23T16:50:19.829Z,69.50
2018-02-23T16:52:46.396Z,69.30
2018-02-23T16:55:13.345Z,69.20
2018-02-23T16:57:40.082Z,69.50
2018-02-23T17:00:06.333Z,69.60
2018-02-23T17:02:33.327Z,69.60
2018-02-23T17:04:59.929Z,69.70
2018-02-23T17:07:26.929Z,69.90
2018-02-23T17:09:53.260Z,69.90
2018-02-23T17:12:20.416Z,69.90
2018-02-23T17:14:46.962Z,70.00
2018-02-23T17:17:13.757Z,70.00
2018-02-23T17:19:41.007Z,70.00
2018-02-23T17:22:08.451Z,69.70
2018-02-23T17:24:35.946Z,69.60
2018-02-23T17:27:02.961Z,69.70
2018-02-23T17:29:29.836Z,69.70
2018-02-23T17:31:57.415Z,70.40
2018-02-23T17:34:24.148Z,69.50
2018-02-23T17:36:51.130Z,70.40
2018-02-23T17:39:17.946Z,70.00
2018-02-23T17:41:45.554Z,69.60
2018-02-23T17:44:12.283Z,69.60
2018-02-23T17:46:38.536Z,69.60
2018-02-23T17:49:05.319Z,69.50
2018-02-23T17:51:31.573Z,69.70
2018-02-23T17:53:59.444Z,69.80
2018-02-23T17:56:27.433Z,69.80
2018-02-23T17:58:54.425Z,70.10
2018-02-23T18:01:20.716Z,70.10
2018-02-23T18:03:48.487Z,70.10
2018-02-23T18:06:15.477Z,70.00
2018-02-23T18:08:41.763Z,70.10
2018-02-23T18:11:08.785Z,70.00
2018-02-23T18:13:37.123Z,69.90
2018-02-23T18:16:03.391Z,69.90
2018-02-23T18:18:30.393Z,70.00
2018-02-23T18:20:57.450Z,70.30
2018-02-23T18:23:24.553Z,70.20
2018-02-23T18:26:05.748Z,70.20
2018-02-23T18:28:32.852Z,70.00
2018-02-23T18:30:59.537Z,70.00
2018-02-23T18:33:26.412Z,69.90
2018-02-23T18:35:54.024Z,69.90
2018-02-23T18:38:21.002Z,69.80
2018-02-23T18:40:47.773Z,69.30
2018-02-23T18:43:15.242Z,70.40
2018-02-23T18:45:42.340Z,69.70
2018-02-23T18:48:08.608Z,69.70
2018-02-23T18:50:34.879Z,69.50
2018-02-23T18:53:01.680Z,70.10
2018-02-23T18:55:28.633Z,69.80
2018-02-23T18:57:55.346Z,69.90
2018-02-23T19:00:21.602Z,70.00
2018-02-23T19:02:47.866Z,70.00
2018-02-23T19:05:15.231Z,70.40
2018-02-23T19:07:42.336Z,70.60
2018-02-23T19:10:09.285Z,70.50
2018-02-23T19:12:35.564Z,70.40
2018-02-23T19:15:03.354Z,70.70
2018-02-23T19:17:30.114Z,70.60
2018-02-23T19:19:56.356Z,70.90
2018-02-23T19:22:23.060Z,70.70
2018-02-23T19:24:49.330Z,70.80
2018-02-23T19:27:15.600Z,70.90
2018-02-23T19:29:42.339Z,71.10
2018-02-23T19:32:09.021Z,70.60
2018-02-23T19:34:36.564Z,70.70
2018-02-23T19:37:03.339Z,70.70
2018-02-23T19:39:31.860Z,71.30
2018-02-23T19:41:58.115Z,71.30
2018-02-23T19:44:24.739Z,72.00
2018-02-23T19:46:50.996Z,71.30
2018-02-23T19:49:17.336Z,71.30
2018-02-23T19:51:43.645Z,71.50
2018-02-23T19:54:10.709Z,70.90
2018-02-23T19:56:37.377Z,71.50
2018-02-23T19:59:03.643Z,71.40
2018-02-23T20:01:30.631Z,71.10
2018-02-23T20:03:57.334Z,71.00
2018-02-23T20:06:24.319Z,70.80
2018-02-23T20:08:50.585Z,70.80
2018-02-23T20:11:17.485Z,70.90
2018-02-23T20:13:44.069Z,70.60
2018-02-23T20:16:10.332Z,70.70
2018-02-23T20:18:36.595Z,70.80
2018-02-23T20:21:03.882Z,71.80
2018-02-23T20:23:30.148Z,71.80
2018-02-23T20:25:56.834Z,70.80
2018-02-23T20:28:23.093Z,71.50
2018-02-23T20:30:50.524Z,71.60
2018-02-23T20:33:18.055Z,71.20
2018-02-23T20:35:44.796Z,71.30
2018-02-23T20:38:11.326Z,71.20
2018-02-23T20:40:37.579Z,71.10
2018-02-23T20:43:03.873Z,70.90
2018-02-23T20:45:30.150Z,70.80
2018-02-23T20:47:56.506Z,70.90
2018-02-23T20:50:23.561Z,71.10
2018-02-23T20:52:51.133Z,72.00
2018-02-23T20:55:18.452Z,72.40
2018-02-23T20:57:45.138Z,72.30
2018-02-23T21:00:12.597Z,71.10
2018-02-23T21:02:39.596Z,71.00
2018-02-23T21:05:05.893Z,71.00
2018-02-23T21:07:33.444Z,70.90
2018-02-23T21:10:01.149Z,71.10
2018-02-23T21:12:28.029Z,71.00
2018-02-23T21:14:54.705Z,71.00
2018-02-23T21:17:21.764Z,71.10
2018-02-23T21:19:48.776Z,71.10
2018-02-23T21:22:15.058Z,71.10
2018-02-23T21:24:42.612Z,71.50
2018-02-23T21:27:09.639Z,71.80
2018-02-23T21:29:36.314Z,71.70
2018-02-23T21:32:03.883Z,71.40
2018-02-23T21:34:31.308Z,71.50
2018-02-23T21:36:57.573Z,71.50
2018-02-23T21:39:25.009Z,71.50
2018-02-23T21:41:52.964Z,71.40
2018-02-23T21:44:19.249Z,71.40
2018-02-23T21:46:46.603Z,70.90
2018-02-23T21:49:13.601Z,71.30
2018-02-23T21:51:40.236Z,71.20
2018-02-23T21:54:07.031Z,71.30
2018-02-23T21:56:34.063Z,71.10
2018-02-23T21:59:00.351Z,71.10
2018-02-23T22:01:26.717Z,71.50
2018-02-23T22:03:52.980Z,71.20
2018-02-23T22:06:19.999Z,70.90
2018-02-23T22:08:46.908Z,70.80
2018-02-23T22:11:13.892Z,70.90
2018-02-23T22:13:40.804Z,70.90
2018-02-23T22:16:07.800Z,71.00
2018-02-23T22:18:34.060Z,70.90
2018-02-23T22:21:00.324Z,70.90
2018-02-23T22:23:27.324Z,71.30
2018-02-23T22:25:53.685Z,71.30
2018-02-23T22:28:20.657Z,71.20
2018-02-23T22:30:48.198Z,72.70
2018-02-23T22:33:15.178Z,72.30
2018-02-23T22:35:42.596Z,72.80
2018-02-23T22:38:08.837Z,72.80
2018-02-23T22:40:35.621Z,72.50
2018-02-23T22:43:02.644Z,71.60
2018-02-23T22:45:29.477Z,71.50
2018-02-23T22:47:55.750Z,71.40
2018-02-23T22:50:22.756Z,71.50
2018-02-23T22:52:49.284Z,71.40
2018-02-23T22:55:16.193Z,71.10
2018-02-23T22:57:43.652Z,71.50
2018-02-23T23:00:09.919Z,71.40
2018-02-23T23:02:36.177Z,71.60
2018-02-23T23:05:02.778Z,72.30
2018-02-23T23:07:31.257Z,71.10
2018-02-23T23:09:58.777Z,71.40
2018-02-23T23:12:25.027Z,71.40
2018-02-23T23:14:51.753Z,71.10
2018-02-23T23:17:18.007Z,71.40
2018-02-23T23:19:44.264Z,71.60
2018-02-23T23:22:11.637Z,71.40
2018-02-23T23:24:39.397Z,71.20
2018-02-23T23:27:06.964Z,71.50
2018-02-23T23:29:34.626Z,71.30
2018-02-23T23:32:02.293Z,71.40
2018-02-23T23:34:29.756Z,71.40
2018-02-23T23:36:56.730Z,71.70
2018-02-23T23:39:30.723Z,71.70
2018-02-23T23:41:57.714Z,73.60
2018-02-23T23:44:23.964Z,73.60
2018-02-23T23:46:51.260Z,73.80
2018-02-23T23:49:18.252Z,73.20
2018-02-23T23:51:44.537Z,73.20
2018-02-23T23:54:12.118Z,73.60
2018-02-23T23:56:39.105Z,73.80
2018-02-23T23:59:05.364Z,73.70
